Time;durP1;ratioP1;P1;durP2;ratioP2;P2;SDS_P1;SDS_P2;PMS_P1;PMS_P2;Temp;Humidity;BMP_temperature;BMP_pressure;BME280_temperature;BME280_humidity;BME280_pressure;Samples;Min_cycle;Max_cycle;Signal;HPM_P1;HPM_P2
2020/12/25 00:01:24;;;;;;;16.02;3.03;;;;;;;1.58;93.69;101828.28;6227533;22;20074;-72
2020/12/25 00:03:50;;;;;;;11.30;2.55;;;;;;;1.55;93.74;101824.91;6280118;22;20392;-72
2020/12/25 00:06:16;;;;;;;16.90;2.80;;;;;;;1.56;93.72;101821.13;6280000;22;20373;-72
2020/12/25 00:08:41;;;;;;;15.52;2.88;;;;;;;1.56;93.65;101826.59;6252240;22;20069;-73
2020/12/25 00:11:07;;;;;;;16.00;3.50;;;;;;;1.54;93.77;101825.13;6279841;22;20007;-72
2020/12/25 00:13:32;;;;;;;16.45;2.85;;;;;;;1.54;93.74;101825.97;6279900;22;20008;-72
2020/12/25 00:15:58;;;;;;;13.20;2.80;;;;;;;1.54;93.94;101827.84;6252077;22;20012;-72
2020/12/25 00:18:24;;;;;;;10.88;2.78;;;;;;;1.51;94.00;101834.56;6279650;22;20011;-72
2020/12/25 00:20:51;;;;;;;9.85;2.60;;;;;;;1.51;93.95;101828.25;6279733;22;20004;-72
2020/12/25 00:23:17;;;;;;;11.00;2.85;;;;;;;1.56;93.79;101832.09;6252306;22;20006;-73
2020/12/25 00:25:42;;;;;;;11.90;2.50;;;;;;;1.52;93.86;101825.31;6251237;22;20609;-73
2020/12/25 00:28:08;;;;;;;12.05;2.92;;;;;;;1.55;93.77;101827.63;6279709;22;20011;-72
2020/12/25 00:30:33;;;;;;;9.90;2.65;;;;;;;1.55;93.81;101833.09;6251639;22;20016;-73
2020/12/25 00:32:59;;;;;;;11.43;2.80;;;;;;;1.57;93.55;101832.91;6252026;22;20007;-72
2020/12/25 00:35:25;;;;;;;16.13;3.00;;;;;;;1.58;93.68;101831.03;6279070;22;20012;-72
2020/12/25 00:37:50;;;;;;;12.63;3.00;;;;;;;1.58;93.58;101841.97;6252605;22;20035;-72
2020/12/25 00:40:16;;;;;;;12.48;2.58;;;;;;;1.60;93.42;101834.41;6251776;22;20013;-72
2020/12/25 00:42:41;;;;;;;12.55;2.60;;;;;;;1.59;93.38;101840.91;6251837;22;20007;-73
2020/12/25 00:45:07;;;;;;;19.52;2.88;;;;;;;1.59;93.35;101838.19;6279150;22;20011;-73
2020/12/25 00:47:33;;;;;;;15.38;3.00;;;;;;;1.59;93.61;101836.31;6277708;22;20003;-72
2020/12/25 00:49:58;;;;;;;15.50;2.97;;;;;;;1.59;93.49;101832.69;6278919;22;20014;-73
2020/12/25 00:52:24;;;;;;;9.50;2.83;;;;;;;1.59;93.44;101836.31;6279561;22;20015;-72
2020/12/25 00:54:52;;;;;;;18.60;2.97;;;;;;;1.60;93.56;101831.69;6251715;22;20011;-73
2020/12/25 00:57:18;;;;;;;14.90;3.13;;;;;;;1.62;93.53;101835.06;6252046;22;20005;-72
2020/12/25 00:59:44;;;;;;;11.27;2.72;;;;;;;1.61;93.49;101834.19;6225914;22;20018;-72
2020/12/25 01:02:09;;;;;;;11.07;2.38;;;;;;;1.55;93.63;101830.38;6279060;22;20019;-72
2020/12/25 01:04:35;;;;;;;12.98;2.83;;;;;;;1.61;93.50;101833.34;6252404;22;20030;-73
2020/12/25 01:07:07;;;;;;;10.52;2.38;;;;;;;1.62;93.61;101833.16;6278690;22;20380;-73
2020/12/25 01:09:33;;;;;;;8.68;2.80;;;;;;;1.60;93.51;101832.50;6251605;22;20035;-73
2020/12/25 01:11:59;;;;;;;13.18;2.80;;;;;;;1.59;93.37;101835.44;6252297;22;20428;-72
2020/12/25 01:14:26;;;;;;;10.32;2.72;;;;;;;1.55;93.48;101835.84;6279023;22;20015;-72
2020/12/25 01:16:53;;;;;;;10.63;2.83;;;;;;;1.54;93.72;101845.13;6251732;22;20476;-73
2020/12/25 01:19:19;;;;;;;10.60;2.80;;;;;;;1.54;93.43;101834.16;6252462;22;20010;-72
2020/12/25 01:21:44;;;;;;;11.93;3.00;;;;;;;1.53;93.64;101832.50;6278920;22;20008;-72
2020/12/25 01:24:10;;;;;;;12.45;2.33;;;;;;;1.48;93.73;101824.03;6251796;22;20004;-72
2020/12/25 01:26:35;;;;;;;12.73;3.13;;;;;;;1.49;93.94;101831.19;6251401;22;20440;-73
2020/12/25 01:29:02;;;;;;;12.88;2.65;;;;;;;1.51;93.99;101828.25;6278421;22;20007;-73
2020/12/25 01:31:28;;;;;;;12.32;3.03;;;;;;;1.51;93.66;101823.63;6251404;22;20014;-73
2020/12/25 01:33:53;;;;;;;13.65;2.90;;;;;;;1.51;93.84;101834.56;6226192;22;20008;-72
2020/12/25 01:36:18;;;;;;;12.55;2.97;;;;;;;1.48;93.87;101840.47;6251658;22;20012;-73
2020/12/25 01:38:44;;;;;;;13.27;2.83;;;;;;;1.47;94.00;101844.22;6251956;22;20012;-72
2020/12/25 01:41:10;;;;;;;15.02;3.42;;;;;;;1.46;94.26;101841.69;6251759;22;20337;-72
2020/12/25 01:43:35;;;;;;;9.40;2.95;;;;;;;1.46;94.30;101847.19;6278544;22;20026;-72
2020/12/25 01:46:01;;;;;;;13.02;3.05;;;;;;;1.45;94.24;101845.47;6278271;22;20016;-72
2020/12/25 01:48:26;;;;;;;11.57;3.72;;;;;;;1.48;93.89;101845.09;6279307;22;20299;-73
2020/12/25 01:50:52;;;;;;;13.73;4.28;;;;;;;1.47;93.89;101854.34;6278213;22;20011;-73
2020/12/25 01:53:19;;;;;;;14.73;3.28;;;;;;;1.47;93.90;101849.69;6251350;22;20008;-72
2020/12/25 01:55:44;;;;;;;8.93;3.00;;;;;;;1.50;93.76;101845.72;6251255;22;20008;-72
2020/12/25 01:58:10;;;;;;;9.65;2.92;;;;;;;1.47;93.45;101849.69;6226470;22;20007;-72
2020/12/25 02:00:35;;;;;;;9.10;3.10;;;;;;;1.46;93.72;101850.75;6277894;22;20007;-73
2020/12/25 02:03:01;;;;;;;9.32;3.05;;;;;;;1.48;93.72;101843.19;6251332;22;20007;-72
2020/12/25 02:05:27;;;;;;;13.10;2.63;;;;;;;1.48;93.76;101845.94;6278799;22;20010;-72
2020/12/25 02:07:55;;;;;;;7.65;2.55;;;;;;;1.48;93.63;101839.63;6251117;22;20020;-72
2020/12/25 02:10:21;;;;;;;17.58;3.90;;;;;;;1.44;93.62;101852.84;6277775;22;20058;-72
2020/12/25 02:12:46;;;;;;;10.55;3.08;;;;;;;1.50;93.49;101857.50;6251423;22;20517;-73
2020/12/25 02:15:12;;;;;;;9.55;2.38;;;;;;;1.47;93.51;101848.84;6278783;22;20004;-72
2020/12/25 02:17:47;;;;;;;10.68;2.20;;;;;;;1.38;93.69;101847.34;6251285;22;20012;-72
2020/12/25 02:20:13;;;;;;;11.23;2.60;;;;;;;1.45;93.43;101856.41;6278586;22;20267;-72
2020/12/25 02:22:38;;;;;;;9.93;2.40;;;;;;;1.43;93.65;101853.06;6251670;22;20214;-72
2020/12/25 02:25:04;;;;;;;7.10;2.70;;;;;;;1.44;93.55;101857.47;6226031;22;20015;-73
2020/12/25 02:27:30;;;;;;;6.75;2.45;;;;;;;1.46;93.56;101852.66;6278280;22;20429;-72
2020/12/25 02:29:55;;;;;;;8.35;2.42;;;;;;;1.42;93.45;101852.22;6250227;22;20007;-73
2020/12/25 02:32:21;;;;;;;9.43;2.40;;;;;;;1.44;93.19;101852.84;6226245;22;20003;-72
2020/12/25 02:34:46;;;;;;;7.80;2.30;;;;;;;1.42;93.36;101854.97;6251312;22;20019;-72
2020/12/25 02:37:12;;;;;;;6.82;2.13;;;;;;;1.44;93.44;101858.31;6277914;22;20004;-72
2020/12/25 02:39:37;;;;;;;6.25;2.53;;;;;;;1.43;93.29;101858.53;6278145;22;20007;-72
2020/12/25 02:42:03;;;;;;;7.85;2.15;;;;;;;1.41;93.20;101861.47;6200947;22;20008;-72
2020/12/25 02:44:28;;;;;;;7.72;2.58;;;;;;;1.41;93.64;101861.47;6277705;22;20368;-72
2020/12/25 02:46:54;;;;;;;6.70;2.38;;;;;;;1.40;93.23;101864.41;6225518;22;20045;-72
2020/12/25 02:49:20;;;;;;;7.40;2.22;;;;;;;1.41;93.22;101864.19;6201774;22;20014;-72
2020/12/25 02:51:47;;;;;;;6.30;2.10;;;;;;;1.39;93.41;101858.06;6280511;22;20065;-73
2020/12/25 02:54:13;;;;;;;7.22;1.95;;;;;;;1.40;93.32;101862.53;6228072;22;20015;-72
2020/12/25 02:56:38;;;;;;;13.35;2.20;;;;;;;1.40;93.24;101868.00;6253190;22;20429;-72
2020/12/25 02:59:04;;;;;;;9.65;2.08;;;;;;;1.41;93.14;101861.47;6253198;22;20038;-73
2020/12/25 03:01:29;;;;;;;8.85;1.98;;;;;;;1.41;93.16;101864.19;6280224;22;20022;-72
2020/12/25 03:03:55;;;;;;;8.63;1.92;;;;;;;1.41;93.17;101868.84;6279843;22;20010;-72
2020/12/25 03:06:20;;;;;;;4.53;2.10;;;;;;;1.44;93.15;101865.69;6280521;22;20054;-73
2020/12/25 03:08:46;;;;;;;6.53;2.00;;;;;;;1.37;93.25;101862.09;6280307;22;20012;-72
2020/12/25 03:11:11;;;;;;;7.47;2.15;;;;;;;1.37;92.90;101860.19;6279566;22;20011;-72
2020/12/25 03:13:37;;;;;;;6.72;1.80;;;;;;;1.31;93.04;101858.25;6252929;22;20015;-72
2020/12/25 03:16:05;;;;;;;8.27;2.08;;;;;;;1.35;92.96;101865.00;6228178;22;20007;-73
2020/12/25 03:18:31;;;;;;;8.98;2.20;;;;;;;1.31;92.76;101869.19;6280312;22;20030;-72
2020/12/25 03:20:57;;;;;;;9.73;2.00;;;;;;;1.35;92.95;101865.00;6227435;22;20340;-73
2020/12/25 03:23:22;;;;;;;12.82;2.10;;;;;;;1.34;93.12;101863.31;6280082;22;19999;-73
2020/12/25 03:25:48;;;;;;;7.60;1.95;;;;;;;1.37;93.08;101865.66;6227883;22;20309;-72
2020/12/25 03:28:13;;;;;;;11.20;2.20;;;;;;;1.37;93.22;101865.66;6280027;22;20046;-72
2020/12/25 03:30:39;;;;;;;12.40;2.17;;;;;;;1.38;93.14;101864.59;6278892;22;20011;-72
2020/12/25 03:33:04;;;;;;;7.10;2.47;;;;;;;1.36;93.11;101865.84;6279985;22;20012;-72
2020/12/25 03:35:30;;;;;;;7.35;2.10;;;;;;;1.41;93.11;101866.94;6280255;22;20008;-72
2020/12/25 03:37:56;;;;;;;9.35;2.35;;;;;;;1.39;93.08;101879.97;6279597;22;20015;-73
2020/12/25 03:40:21;;;;;;;13.02;2.55;;;;;;;1.39;93.21;101873.66;6279626;22;20341;-72
2020/12/25 03:42:48;;;;;;;11.82;2.75;;;;;;;1.39;93.20;101877.22;6280231;22;20009;-72
2020/12/25 03:45:14;;;;;;;11.80;2.30;;;;;;;1.39;93.05;101879.97;6252356;22;20007;-73
2020/12/25 03:47:40;;;;;;;8.40;2.13;;;;;;;1.41;93.04;101886.09;6252579;22;20027;-73
2020/12/25 03:50:06;;;;;;;6.70;2.08;;;;;;;1.41;93.10;101882.53;6252881;22;20003;-72
2020/12/25 03:52:31;;;;;;;8.68;2.00;;;;;;;1.48;92.70;101884.25;6252869;22;20428;-73
2020/12/25 03:54:57;;;;;;;13.80;2.35;;;;;;;1.46;93.03;101883.63;6278947;22;20014;-72
2020/12/25 03:57:22;;;;;;;6.40;2.05;;;;;;;1.48;92.97;101892.47;6253235;22;20008;-72
2020/12/25 03:59:48;;;;;;;9.23;2.10;;;;;;;1.50;93.00;101898.56;6279501;22;20018;-72
2020/12/25 04:02:13;;;;;;;14.52;2.28;;;;;;;1.52;93.04;101885.53;6252784;22;20324;-72
2020/12/25 04:04:39;;;;;;;9.13;2.70;;;;;;;1.59;92.48;101887.47;6227078;22;20011;-72
2020/12/25 04:07:05;;;;;;;8.88;2.50;;;;;;;1.61;92.42;101888.97;6279718;22;20018;-73
2020/12/25 04:09:30;;;;;;;9.98;2.15;;;;;;;1.64;92.17;101876.75;6279424;22;20431;-73
2020/12/25 04:11:56;;;;;;;8.68;2.10;;;;;;;1.74;91.97;101872.63;6279217;22;20007;-73
2020/12/25 04:14:21;;;;;;;6.70;2.50;;;;;;;1.76;91.87;101875.16;6227179;22;20072;-72
2020/12/25 04:16:47;;;;;;;9.68;2.40;;;;;;;1.84;91.84;101883.22;6252686;22;20480;-72
2020/12/25 04:19:12;;;;;;;14.02;2.40;;;;;;;1.85;92.07;101879.41;6279526;22;20372;-72
2020/12/25 04:21:38;;;;;;;9.18;3.05;;;;;;;1.90;91.75;101868.69;6252397;22;20494;-72
2020/12/25 04:24:04;;;;;;;11.25;3.45;;;;;;;1.96;91.56;101876.09;6252629;22;20003;-72
2020/12/25 04:26:29;;;;;;;14.23;2.60;;;;;;;2.01;91.29;101889.19;6279336;22;20008;-72
2020/12/25 04:28:55;;;;;;;7.32;1.90;;;;;;;2.02;91.44;101885.41;6278895;22;20015;-72
2020/12/25 04:31:24;;;;;;;7.18;1.90;;;;;;;2.07;91.42;101882.91;6226149;22;20008;-73
2020/12/25 04:33:50;;;;;;;5.18;1.90;;;;;;;2.07;91.26;101888.38;6252726;22;20003;-73
2020/12/25 04:36:16;;;;;;;6.38;1.63;;;;;;;2.07;91.34;101893.88;6279656;22;20038;-72
2020/12/25 04:38:41;;;;;;;6.95;1.50;;;;;;;2.13;90.83;101892.19;6252314;22;20011;-72
2020/12/25 04:41:07;;;;;;;11.52;2.30;;;;;;;2.10;90.96;101889.88;6251853;22;20018;-72
2020/12/25 04:43:32;;;;;;;9.95;1.90;;;;;;;2.09;90.25;101896.38;6279708;22;20011;-72
2020/12/25 04:45:58;;;;;;;6.88;1.50;;;;;;;2.11;90.37;101897.03;6278701;22;20011;-72
2020/12/25 04:48:23;;;;;;;7.85;1.60;;;;;;;2.09;90.19;101886.28;6226805;22;20447;-72
2020/12/25 04:50:49;;;;;;;9.85;2.58;;;;;;;2.06;90.66;101892.16;6252131;22;20008;-72
2020/12/25 04:53:14;;;;;;;7.65;1.45;;;;;;;2.09;90.26;101897.25;6252383;22;20008;-72
2020/12/25 04:55:40;;;;;;;10.25;1.95;;;;;;;2.10;90.24;101898.09;6226211;22;20003;-73
2020/12/25 04:58:06;;;;;;;5.53;1.30;;;;;;;2.09;90.30;101901.88;6279014;22;20082;-72
2020/12/25 05:00:32;;;;;;;3.83;1.20;;;;;;;2.01;90.62;101895.53;6252124;22;20034;-73
2020/12/25 05:02:57;;;;;;;6.72;1.42;;;;;;;2.00;90.95;101903.94;6279266;22;20012;-73
2020/12/25 05:05:31;;;;;;;3.67;1.27;;;;;;;2.00;91.01;101904.78;6279074;22;20011;-72
2020/12/25 05:07:57;;;;;;;8.38;1.50;;;;;;;1.97;90.86;101896.97;6278790;22;20023;-72
2020/12/25 05:10:23;;;;;;;6.18;1.20;;;;;;;1.98;90.22;101895.94;6252111;22;20014;-72
2020/12/25 05:12:49;;;;;;;6.18;1.33;;;;;;;1.96;90.56;101899.91;6278617;22;20029;-72
2020/12/25 05:15:14;;;;;;;5.10;1.10;;;;;;;1.93;90.29;101892.94;6278536;22;20372;-72
2020/12/25 05:17:43;;;;;;;6.82;1.38;;;;;;;1.94;90.50;101893.78;6278928;22;20483;-72
2020/12/25 05:20:08;;;;;;;7.10;1.63;;;;;;;1.87;91.17;101893.78;6279127;22;20011;-72
2020/12/25 05:22:34;;;;;;;7.05;1.50;;;;;;;1.86;90.74;101897.53;6251557;22;20016;-72
2020/12/25 05:25:04;;;;;;;7.43;1.10;;;;;;;1.83;91.01;101897.09;6251193;22;20011;-73
2020/12/25 05:27:30;;;;;;;6.60;1.15;;;;;;;1.80;91.47;101906.56;6252298;22;20018;-72
2020/12/25 05:29:59;;;;;;;6.53;1.00;;;;;;;1.79;91.28;101891.19;6277908;22;19999;-73
2020/12/25 05:32:28;;;;;;;7.32;1.40;;;;;;;1.75;91.57;101895.38;6227138;22;20007;-73
2020/12/25 05:34:54;;;;;;;8.07;1.25;;;;;;;1.75;91.59;101893.47;6278725;22;20006;-72
2020/12/25 05:37:20;;;;;;;2.78;1.10;;;;;;;1.75;91.80;101898.94;6279443;22;20015;-73
2020/12/25 05:39:46;;;;;;;7.72;1.65;;;;;;;1.75;91.80;101893.47;6200770;22;20492;-72
2020/12/25 05:42:11;;;;;;;9.07;1.20;;;;;;;1.75;91.90;101900.84;6226323;22;20034;-72
2020/12/25 05:44:43;;;;;;;3.50;1.05;;;;;;;1.75;92.28;101900.84;6226459;22;20004;-73
2020/12/25 05:47:12;;;;;;;8.30;1.48;;;;;;;1.75;92.53;101900.84;6278886;22;20003;-73
2020/12/25 05:49:37;;;;;;;7.97;1.30;;;;;;;1.73;92.69;101901.06;6226839;22;20054;-73
2020/12/25 05:52:03;;;;;;;7.90;1.42;;;;;;;1.73;92.93;101906.53;6278475;22;20003;-73
2020/12/25 05:54:28;;;;;;;5.57;1.33;;;;;;;1.76;92.97;101903.41;6278449;22;20011;-73
2020/12/25 05:56:55;;;;;;;5.38;1.58;;;;;;;1.82;93.04;101909.13;6251572;22;20007;-73
2020/12/25 05:59:24;;;;;;;7.57;1.65;;;;;;;1.89;92.90;101915.47;6251098;22;20375;-72
2020/12/25 06:01:56;;;;;;;9.20;1.48;;;;;;;1.92;92.81;101907.72;6278604;22;20027;-72
2020/12/25 06:04:22;;;;;;;8.65;1.25;;;;;;;2.00;92.37;101915.72;6279091;22;20071;-72
2020/12/25 06:06:49;;;;;;;6.95;1.17;;;;;;;2.05;92.22;101917.03;6278531;22;20008;-72
2020/12/25 06:09:16;;;;;;;6.20;1.48;;;;;;;2.10;91.64;101915.38;6276158;22;20094;-72
2020/12/25 06:11:44;;;;;;;6.55;1.55;;;;;;;2.15;91.65;101928.47;6278602;22;20035;-73
2020/12/25 06:14:10;;;;;;;7.28;1.20;;;;;;;2.16;91.31;101925.53;6251894;22;20413;-72
2020/12/25 06:16:35;;;;;;;7.22;1.58;;;;;;;2.22;90.75;101921.97;6251461;22;20033;-72
2020/12/25 06:19:05;;;;;;;4.97;1.25;;;;;;;2.34;90.02;101929.59;6200612;22;20012;-72
2020/12/25 06:21:43;;;;;;;8.10;1.40;;;;;;;2.41;89.74;101919.50;6201499;22;20015;-73
2020/12/25 06:24:09;;;;;;;6.28;1.10;;;;;;;2.44;89.76;101930.06;6251255;22;19999;-72
2020/12/25 06:26:35;;;;;;;8.45;1.23;;;;;;;2.49;89.20;101933.03;6225781;22;20047;-72
2020/12/25 06:29:03;;;;;;;4.35;1.17;;;;;;;2.54;88.95;101926.94;6175989;22;20209;-73
2020/12/25 06:31:46;;;;;;;4.40;0.90;;;;;;;2.52;89.15;101920.81;6277970;22;20008;-73
2020/12/25 06:34:11;;;;;;;5.75;1.10;;;;;;;2.55;89.11;101934.13;6251597;22;20014;-73
2020/12/25 06:36:40;;;;;;;3.83;1.20;;;;;;;2.58;88.53;101930.94;6250771;22;20344;-73
2020/12/25 06:39:09;;;;;;;7.30;1.52;;;;;;;2.58;88.56;101933.69;6226033;22;20094;-72
2020/12/25 06:41:36;;;;;;;4.53;1.27;;;;;;;2.55;88.67;101931.38;6278042;22;20012;-73
2020/12/25 06:44:01;;;;;;;7.95;1.65;;;;;;;2.55;88.87;101934.13;6277998;22;20007;-72
2020/12/25 06:46:28;;;;;;;9.13;1.20;;;;;;;2.50;88.88;101937.47;6278042;22;20004;-73
2020/12/25 06:48:54;;;;;;;5.28;1.48;;;;;;;2.50;88.56;101937.47;6278183;22;20533;-73
2020/12/25 06:51:23;;;;;;;6.00;2.35;;;;;;;2.49;88.57;101938.53;6201475;22;20007;-73
2020/12/25 06:53:48;;;;;;;11.05;3.63;;;;;;;2.50;88.57;101939.38;6278006;22;20008;-72
2020/12/25 06:56:15;;;;;;;11.25;3.60;;;;;;;2.45;88.60;101951.81;6276335;22;20066;-72
2020/12/25 06:58:44;;;;;;;8.85;2.53;;;;;;;2.46;88.37;101958.97;6250955;22;20011;-72
2020/12/25 07:01:11;;;;;;;8.40;2.42;;;;;;;2.49;88.75;101954.13;6251876;22;20011;-72
2020/12/25 07:03:37;;;;;;;6.28;1.88;;;;;;;2.51;87.84;101958.38;6251320;22;20007;-72
2020/12/25 07:06:03;;;;;;;6.63;2.17;;;;;;;2.54;87.93;101965.34;6251433;22;20321;-72
2020/12/25 07:08:30;;;;;;;11.57;2.05;;;;;;;2.56;88.33;101975.03;6278181;22;20400;-73
2020/12/25 07:11:08;;;;;;;7.40;2.13;;;;;;;2.55;88.29;101972.50;6250863;22;19999;-72
2020/12/25 07:13:40;;;;;;;8.32;2.08;;;;;;;2.59;88.56;101976.53;6251014;22;20013;-73
2020/12/25 07:16:06;;;;;;;9.98;1.85;;;;;;;2.62;88.51;101973.41;6278138;22;20003;-73
2020/12/25 07:18:32;;;;;;;6.25;1.75;;;;;;;2.62;88.53;101971.50;6278534;22;20003;-73
2020/12/25 07:21:01;;;;;;;8.35;2.30;;;;;;;2.63;88.89;101981.41;6251405;22;20007;-73
2020/12/25 07:23:27;;;;;;;5.75;1.52;;;;;;;2.65;88.36;101978.47;6251548;22;20004;-72
2020/12/25 07:25:57;;;;;;;9.05;2.00;;;;;;;2.65;88.62;101973.81;6277756;22;20070;-72
2020/12/25 07:28:23;;;;;;;7.75;1.80;;;;;;;2.65;88.90;101983.94;6251624;22;20030;-73
2020/12/25 07:30:49;;;;;;;5.80;1.65;;;;;;;2.66;88.85;101985.63;6276698;22;20008;-73
2020/12/25 07:33:15;;;;;;;5.93;1.17;;;;;;;2.66;89.01;101988.38;6225188;22;20018;-72
2020/12/25 07:35:41;;;;;;;8.85;1.52;;;;;;;2.67;89.02;101993.66;6252197;22;20434;-73
2020/12/25 07:38:07;;;;;;;4.47;0.93;;;;;;;2.68;88.63;101989.88;6280228;22;20008;-72
2020/12/25 07:40:33;;;;;;;4.85;1.63;;;;;;;2.66;88.89;101997.44;6252364;22;20468;-72
2020/12/25 07:42:58;;;;;;;9.95;1.83;;;;;;;2.68;88.30;101997.25;6252816;22;20004;-72
2020/12/25 07:45:24;;;;;;;11.40;1.63;;;;;;;2.72;88.30;102006.75;6279877;22;20010;-73
2020/12/25 07:47:50;;;;;;;5.43;1.20;;;;;;;2.66;88.74;102005.69;6279729;22;20019;-72
2020/12/25 07:50:16;;;;;;;7.43;1.65;;;;;;;2.63;88.69;102006.09;6252551;22;20011;-72
2020/12/25 07:52:43;;;;;;;8.77;1.60;;;;;;;2.63;88.70;102013.47;6279919;22;20004;-73
2020/12/25 07:55:09;;;;;;;6.05;1.40;;;;;;;2.58;88.42;102014.06;6252677;22;20008;-72
2020/12/25 07:57:38;;;;;;;4.13;1.30;;;;;;;2.57;88.19;102008.81;6202406;22;20007;-72
2020/12/25 08:00:04;;;;;;;9.00;1.48;;;;;;;2.54;88.39;102009.22;6279421;22;19999;-72
2020/12/25 08:02:32;;;;;;;7.68;1.58;;;;;;;2.52;88.38;102012.16;6252875;22;20082;-73
2020/12/25 08:04:58;;;;;;;6.50;1.40;;;;;;;2.50;88.94;102018.91;6279850;22;20035;-72
2020/12/25 08:07:23;;;;;;;6.20;1.33;;;;;;;2.49;88.80;102023.53;6252266;22;20421;-72
2020/12/25 08:09:49;;;;;;;7.35;1.02;;;;;;;2.43;89.45;102027.09;6226894;22;20015;-73
2020/12/25 08:12:16;;;;;;;5.38;1.85;;;;;;;2.42;89.63;102029.00;6202415;22;20015;-73
2020/12/25 08:14:43;;;;;;;7.20;1.20;;;;;;;2.39;89.24;102026.63;6252388;22;20441;-72
2020/12/25 08:17:08;;;;;;;7.07;1.38;;;;;;;2.40;89.42;102043.97;6279217;22;20045;-72
2020/12/25 08:19:37;;;;;;;6.53;1.50;;;;;;;2.35;89.92;102050.03;6224221;22;20011;-72
2020/12/25 08:22:05;;;;;;;9.23;2.17;;;;;;;2.33;89.82;102052.13;6227338;22;20074;-73
2020/12/25 08:24:31;;;;;;;3.83;1.65;;;;;;;2.36;90.09;102048.13;6251818;22;20086;-73
2020/12/25 08:27:01;;;;;;;6.22;1.90;;;;;;;2.37;89.70;102058.09;6252237;22;20023;-72
2020/12/25 08:29:33;;;;;;;8.98;2.38;;;;;;;2.37;89.65;102063.56;6278585;22;20011;-73
2020/12/25 08:32:06;;;;;;;7.97;2.17;;;;;;;2.41;89.52;102057.44;6278741;22;20082;-73
2020/12/25 08:34:32;;;;;;;5.50;2.33;;;;;;;2.43;89.85;102063.59;6279051;22;20012;-72
2020/12/25 08:36:58;;;;;;;10.50;2.22;;;;;;;2.49;90.04;102056.44;6252545;22;20543;-73
2020/12/25 08:39:28;;;;;;;7.90;2.22;;;;;;;2.53;89.26;102057.72;6226933;22;20011;-73
2020/12/25 08:41:55;;;;;;;5.93;1.95;;;;;;;2.53;89.41;102065.09;6252416;22;20003;-72
2020/12/25 08:44:20;;;;;;;5.45;1.48;;;;;;;2.54;89.11;102064.91;6252422;22;20035;-72
2020/12/25 08:46:46;;;;;;;6.70;1.98;;;;;;;2.55;89.50;102065.75;6252369;22;20011;-72
2020/12/25 08:49:12;;;;;;;4.35;1.55;;;;;;;2.60;89.43;102063.25;6279655;22;20003;-72
2020/12/25 08:51:38;;;;;;;6.60;1.40;;;;;;;2.62;89.44;102083.13;6227076;22;20325;-72
2020/12/25 08:54:04;;;;;;;8.73;1.60;;;;;;;2.65;89.16;102088.19;6279452;22;20004;-73
2020/12/25 08:56:29;;;;;;;6.60;1.50;;;;;;;2.71;88.24;102076.41;6279315;22;20003;-73
2020/12/25 08:58:58;;;;;;;7.03;2.03;;;;;;;2.75;88.62;102087.81;6279143;22;20037;-72
2020/12/25 09:01:24;;;;;;;9.45;2.33;;;;;;;2.78;87.67;102079.16;6227111;22;20011;-72
2020/12/25 09:03:50;;;;;;;12.88;2.75;;;;;;;2.84;87.54;102079.22;6252499;22;20004;-73
2020/12/25 09:06:15;;;;;;;6.53;2.13;;;;;;;2.86;88.17;102079.00;6279834;22;20035;-72
2020/12/25 09:08:41;;;;;;;13.98;2.08;;;;;;;2.89;87.60;102084.91;6201978;22;20333;-72
2020/12/25 09:11:08;;;;;;;8.02;2.72;;;;;;;2.95;87.39;102088.72;6278663;22;20447;-72
2020/12/25 09:13:33;;;;;;;9.70;2.20;;;;;;;2.98;87.55;102082.84;6252464;22;20012;-72
2020/12/25 09:15:58;;;;;;;16.67;6.07;;;;;;;3.05;87.30;102088.34;6279977;22;20478;-72
2020/12/25 09:18:24;;;;;;;12.18;3.17;;;;;;;3.07;87.10;102080.78;6279123;22;20011;-73
2020/12/25 09:20:50;;;;;;;12.13;2.92;;;;;;;3.10;87.72;102080.34;6279018;22;20007;-72
2020/12/25 09:23:15;;;;;;;8.57;2.22;;;;;;;3.14;87.77;102084.38;6279588;22;20030;-73
2020/12/25 09:25:41;;;;;;;8.05;2.25;;;;;;;3.18;87.94;102082.09;6251973;22;20000;-72
2020/12/25 09:28:06;;;;;;;11.10;1.92;;;;;;;3.21;87.35;102082.50;6251971;22;20007;-72
2020/12/25 09:30:32;;;;;;;7.18;2.15;;;;;;;3.24;88.40;102082.09;6278288;22;20007;-73
2020/12/25 09:32:57;;;;;;;6.43;1.73;;;;;;;3.26;87.80;102085.47;6279709;22;20008;-73
2020/12/25 09:35:23;;;;;;;7.75;2.10;;;;;;;3.33;87.22;102086.31;6278871;22;20337;-72
2020/12/25 09:37:48;;;;;;;8.40;2.42;;;;;;;3.35;87.99;102078.72;6251807;22;20066;-73
2020/12/25 09:40:14;;;;;;;9.38;2.47;;;;;;;3.43;87.69;102085.09;6278979;22;20452;-73
2020/12/25 09:42:40;;;;;;;6.32;2.28;;;;;;;3.45;87.74;102094.78;6279395;22;20003;-73
2020/12/25 09:45:06;;;;;;;11.95;2.78;;;;;;;3.54;87.76;102096.31;6278558;22;20023;-72
2020/12/25 09:47:31;;;;;;;11.02;2.20;;;;;;;3.53;87.56;102094.59;6251794;22;20035;-72
2020/12/25 09:49:57;;;;;;;9.52;2.00;;;;;;;3.60;87.62;102102.03;6252460;22;20090;-73
2020/12/25 09:52:23;;;;;;;8.52;1.60;;;;;;;3.64;87.83;102101.38;6278853;22;20448;-72
2020/12/25 09:54:49;;;;;;;9.68;2.20;;;;;;;3.69;87.58;102093.38;6226255;22;20011;-73
2020/12/25 09:57:14;;;;;;;9.18;2.42;;;;;;;3.72;86.70;102095.69;6279310;22;20064;-72
2020/12/25 09:59:40;;;;;;;8.70;2.00;;;;;;;3.76;86.62;102096.13;6251844;22;20054;-72
2020/12/25 10:02:06;;;;;;;8.50;2.10;;;;;;;3.79;87.00;102096.56;6278677;22;20003;-72
2020/12/25 10:04:31;;;;;;;6.95;1.90;;;;;;;3.82;85.60;102095.28;6251651;22;20065;-72
2020/12/25 10:06:57;;;;;;;10.65;1.88;;;;;;;3.84;86.34;102100.56;6252093;22;20327;-72
2020/12/25 10:09:23;;;;;;;11.73;2.50;;;;;;;3.89;86.10;102106.28;6251103;22;20016;-72
2020/12/25 10:11:49;;;;;;;7.90;1.95;;;;;;;3.94;86.20;102110.09;6278978;22;20046;-72
2020/12/25 10:14:14;;;;;;;10.35;2.20;;;;;;;3.95;86.25;102105.44;6250974;22;20007;-73
2020/12/25 10:16:40;;;;;;;7.40;2.00;;;;;;;4.03;86.45;102110.72;6252061;22;20008;-72
2020/12/25 10:19:05;;;;;;;8.63;1.85;;;;;;;4.03;86.00;102107.97;6251260;22;20008;-72
2020/12/25 10:21:31;;;;;;;8.02;1.52;;;;;;;4.06;85.11;102107.53;6278539;22;20429;-72
2020/12/25 10:23:56;;;;;;;8.80;1.85;;;;;;;4.14;85.44;102112.84;6279091;22;20010;-72
2020/12/25 10:26:22;;;;;;;7.20;1.50;;;;;;;4.19;85.43;102124.03;6251551;22;20011;-72
2020/12/25 10:28:47;;;;;;;5.55;1.58;;;;;;;4.21;85.42;102121.94;6278203;22;20302;-72
2020/12/25 10:31:13;;;;;;;7.18;1.75;;;;;;;4.24;85.87;102120.66;6278015;22;20008;-72
2020/12/25 10:33:38;;;;;;;8.60;1.60;;;;;;;4.22;84.36;102123.63;6251931;22;20373;-72
2020/12/25 10:36:04;;;;;;;5.70;1.38;;;;;;;4.27;83.64;102130.41;6251469;22;20038;-72
2020/12/25 10:38:30;;;;;;;9.10;1.80;;;;;;;4.28;84.37;102130.16;6278452;22;20011;-73
2020/12/25 10:40:55;;;;;;;10.90;2.13;;;;;;;4.36;85.25;102129.13;6278348;22;20007;-73
2020/12/25 10:43:21;;;;;;;8.98;2.20;;;;;;;4.39;84.63;102128.69;6278898;22;20004;-72
2020/12/25 10:45:47;;;;;;;12.20;3.00;;;;;;;4.40;83.74;102122.97;6251272;22;20007;-73
2020/12/25 10:48:12;;;;;;;7.70;2.70;;;;;;;4.46;83.70;102113.03;6278685;22;20015;-72
2020/12/25 10:50:37;;;;;;;9.50;1.95;;;;;;;4.47;83.56;102131.22;6251708;22;20008;-73
2020/12/25 10:53:03;;;;;;;7.97;1.52;;;;;;;4.49;83.81;102131.84;6279008;22;20003;-73
2020/12/25 10:55:29;;;;;;;13.77;1.80;;;;;;;4.46;83.49;102138.63;6225769;22;20004;-72
2020/12/25 10:57:54;;;;;;;10.07;2.50;;;;;;;4.54;83.46;102123.81;6251780;22;20007;-73
2020/12/25 11:00:19;;;;;;;10.93;2.50;;;;;;;4.54;83.38;102129.31;6278456;22;20003;-72
2020/12/25 11:02:45;;;;;;;9.93;2.28;;;;;;;4.56;82.92;102129.91;6251472;22;20054;-72
2020/12/25 11:05:14;;;;;;;7.50;1.38;;;;;;;4.55;81.96;102122.75;6251532;22;20425;-73
2020/12/25 11:07:39;;;;;;;8.68;1.58;;;;;;;4.58;83.15;102116.81;6251358;22;20022;-72
2020/12/25 11:10:05;;;;;;;8.60;1.63;;;;;;;4.60;83.11;102114.69;6279002;22;20008;-73
2020/12/25 11:12:30;;;;;;;7.55;1.10;;;;;;;4.62;82.13;102106.19;6280237;22;20376;-73
2020/12/25 11:14:56;;;;;;;7.63;1.40;;;;;;;4.60;82.13;102109.19;6280519;22;20090;-72
2020/12/25 11:17:21;;;;;;;10.43;1.70;;;;;;;4.66;82.43;102102.81;6280914;22;20043;-73
2020/12/25 11:19:47;;;;;;;6.65;1.30;;;;;;;4.70;82.16;102106.81;6280120;22;20455;-72
2020/12/25 11:22:16;;;;;;;8.93;1.30;;;;;;;4.67;80.71;102095.41;6279952;22;20425;-72
2020/12/25 11:24:42;;;;;;;8.50;1.73;;;;;;;4.73;81.86;102093.69;6204258;22;20000;-73
2020/12/25 11:27:08;;;;;;;10.15;1.38;;;;;;;4.76;81.21;102098.75;6228366;22;20015;-73